sensor_id;sensor_type;location;lat;lon;timestamp;P1;durP1;ratioP1;P2;durP2;ratioP2
1509;SDS011;746;48.688;9.428;2022-12-07T00:00:08;9.57;;;8.57;;
1509;SDS011;746;48.688;9.428;2022-12-07T00:02:29;8.77;;;7.97;;
1509;SDS011;746;48.688;9.428;2022-12-07T00:04:51;9.00;;;8.10;;
1509;SDS011;746;48.688;9.428;2022-12-07T00:07:13;8.70;;;7.80;;
1509;SDS011;746;48.688;9.428;2022-12-07T00:09:34;9.17;;;8.30;;
1509;SDS011;746;48.688;9.428;2022-12-07T00:11:56;9.43;;;8.00;;
1509;SDS011;746;48.688;9.428;2022-12-07T00:14:18;9.33;;;8.43;;
1509;SDS011;746;48.688;9.428;2022-12-07T00:16:39;9.20;;;8.20;;
1509;SDS011;746;48.688;9.428;2022-12-07T00:19:01;9.73;;;8.73;;
1509;SDS011;746;48.688;9.428;2022-12-07T00:21:24;9.43;;;8.17;;
1509;SDS011;746;48.688;9.428;2022-12-07T00:23:46;9.73;;;8.57;;
1509;SDS011;746;48.688;9.428;2022-12-07T00:26:08;10.30;;;9.30;;
1509;SDS011;746;48.688;9.428;2022-12-07T00:28:31;10.17;;;8.80;;
1509;SDS011;746;48.688;9.428;2022-12-07T00:30:59;10.07;;;9.07;;
1509;SDS011;746;48.688;9.428;2022-12-07T00:33:20;9.73;;;8.73;;
1509;SDS011;746;48.688;9.428;2022-12-07T00:35:41;10.90;;;8.77;;
1509;SDS011;746;48.688;9.428;2022-12-07T00:38:02;9.57;;;8.50;;
1509;SDS011;746;48.688;9.428;2022-12-07T00:40:23;9.43;;;8.47;;
1509;SDS011;746;48.688;9.428;2022-12-07T00:42:44;10.50;;;9.40;;
1509;SDS011;746;48.688;9.428;2022-12-07T00:45:08;10.17;;;9.13;;
1509;SDS011;746;48.688;9.428;2022-12-07T00:47:29;9.93;;;8.93;;
1509;SDS011;746;48.688;9.428;2022-12-07T00:49:51;9.67;;;8.67;;
1509;SDS011;746;48.688;9.428;2022-12-07T00:52:12;9.60;;;8.60;;
1509;SDS011;746;48.688;9.428;2022-12-07T00:54:33;11.33;;;9.23;;
1509;SDS011;746;48.688;9.428;2022-12-07T00:56:54;10.70;;;9.00;;
1509;SDS011;746;48.688;9.428;2022-12-07T00:59:16;9.77;;;8.77;;
1509;SDS011;746;48.688;9.428;2022-12-07T01:01:38;9.80;;;8.80;;
1509;SDS011;746;48.688;9.428;2022-12-07T01:04:00;10.63;;;8.93;;
1509;SDS011;746;48.688;9.428;2022-12-07T01:06:22;10.00;;;9.00;;
1509;SDS011;746;48.688;9.428;2022-12-07T01:08:43;10.50;;;9.37;;
1509;SDS011;746;48.688;9.428;2022-12-07T01:11:06;11.17;;;9.50;;
1509;SDS011;746;48.688;9.428;2022-12-07T01:13:27;11.30;;;9.70;;
1509;SDS011;746;48.688;9.428;2022-12-07T01:15:49;11.43;;;10.07;;
1509;SDS011;746;48.688;9.428;2022-12-07T01:18:11;10.40;;;9.40;;
1509;SDS011;746;48.688;9.428;2022-12-07T01:20:32;12.03;;;10.03;;
1509;SDS011;746;48.688;9.428;2022-12-07T01:22:54;10.63;;;9.50;;
1509;SDS011;746;48.688;9.428;2022-12-07T01:25:15;13.37;;;11.17;;
1509;SDS011;746;48.688;9.428;2022-12-07T01:27:37;12.83;;;11.37;;
1509;SDS011;746;48.688;9.428;2022-12-07T01:29:58;12.80;;;11.03;;
1509;SDS011;746;48.688;9.428;2022-12-07T01:32:20;12.47;;;10.97;;
1509;SDS011;746;48.688;9.428;2022-12-07T01:34:42;12.77;;;10.63;;
1509;SDS011;746;48.688;9.428;2022-12-07T01:37:04;11.77;;;10.57;;
1509;SDS011;746;48.688;9.428;2022-12-07T01:39:25;13.70;;;11.30;;
1509;SDS011;746;48.688;9.428;2022-12-07T01:41:46;13.40;;;11.00;;
1509;SDS011;746;48.688;9.428;2022-12-07T01:44:10;12.00;;;10.70;;
1509;SDS011;746;48.688;9.428;2022-12-07T01:46:31;11.60;;;10.50;;
1509;SDS011;746;48.688;9.428;2022-12-07T01:48:53;11.73;;;10.53;;
1509;SDS011;746;48.688;9.428;2022-12-07T01:51:15;13.80;;;11.70;;
1509;SDS011;746;48.688;9.428;2022-12-07T01:53:37;12.63;;;11.33;;
1509;SDS011;746;48.688;9.428;2022-12-07T01:55:59;13.30;;;11.90;;
1509;SDS011;746;48.688;9.428;2022-12-07T01:58:20;13.20;;;11.90;;
1509;SDS011;746;48.688;9.428;2022-12-07T02:00:42;13.80;;;11.33;;
1509;SDS011;746;48.688;9.428;2022-12-07T02:03:04;13.37;;;11.33;;
1509;SDS011;746;48.688;9.428;2022-12-07T02:05:26;13.60;;;11.37;;
1509;SDS011;746;48.688;9.428;2022-12-07T02:07:48;12.50;;;11.20;;
1509;SDS011;746;48.688;9.428;2022-12-07T02:10:13;13.27;;;11.60;;
1509;SDS011;746;48.688;9.428;2022-12-07T02:12:35;13.20;;;11.80;;
1509;SDS011;746;48.688;9.428;2022-12-07T02:14:56;12.27;;;10.77;;
1509;SDS011;746;48.688;9.428;2022-12-07T02:17:19;11.87;;;10.67;;
1509;SDS011;746;48.688;9.428;2022-12-07T02:20:03;14.50;;;11.23;;
1509;SDS011;746;48.688;9.428;2022-12-07T02:22:40;13.40;;;12.00;;
1509;SDS011;746;48.688;9.428;2022-12-07T02:25:09;13.30;;;11.90;;
1509;SDS011;746;48.688;9.428;2022-12-07T02:27:38;13.63;;;12.07;;
1509;SDS011;746;48.688;9.428;2022-12-07T02:30:02;13.20;;;11.60;;
1509;SDS011;746;48.688;9.428;2022-12-07T02:32:26;14.43;;;11.80;;
1509;SDS011;746;48.688;9.428;2022-12-07T02:34:49;15.67;;;11.30;;
1509;SDS011;746;48.688;9.428;2022-12-07T02:37:14;14.23;;;12.10;;
1509;SDS011;746;48.688;9.428;2022-12-07T02:39:41;14.77;;;12.73;;
1509;SDS011;746;48.688;9.428;2022-12-07T02:42:07;14.00;;;11.80;;
1509;SDS011;746;48.688;9.428;2022-12-07T02:44:30;15.10;;;12.97;;
1509;SDS011;746;48.688;9.428;2022-12-07T02:46:54;14.20;;;12.23;;
1509;SDS011;746;48.688;9.428;2022-12-07T02:49:18;14.73;;;12.43;;
1509;SDS011;746;48.688;9.428;2022-12-07T02:51:40;14.60;;;12.30;;
1509;SDS011;746;48.688;9.428;2022-12-07T02:54:02;16.00;;;12.33;;
1509;SDS011;746;48.688;9.428;2022-12-07T02:56:25;15.67;;;12.70;;
1509;SDS011;746;48.688;9.428;2022-12-07T02:58:50;17.07;;;13.40;;
1509;SDS011;746;48.688;9.428;2022-12-07T03:01:18;14.77;;;12.30;;
1509;SDS011;746;48.688;9.428;2022-12-07T03:03:43;16.70;;;12.27;;
1509;SDS011;746;48.688;9.428;2022-12-07T03:06:09;15.17;;;12.67;;
1509;SDS011;746;48.688;9.428;2022-12-07T03:08:34;13.40;;;11.27;;
1509;SDS011;746;48.688;9.428;2022-12-07T03:10:59;14.60;;;12.37;;
1509;SDS011;746;48.688;9.428;2022-12-07T03:13:23;14.47;;;12.30;;
1509;SDS011;746;48.688;9.428;2022-12-07T03:15:46;15.33;;;12.07;;
1509;SDS011;746;48.688;9.428;2022-12-07T03:18:11;15.50;;;12.33;;
1509;SDS011;746;48.688;9.428;2022-12-07T03:20:35;14.07;;;12.37;;
1509;SDS011;746;48.688;9.428;2022-12-07T03:22:58;13.90;;;11.80;;
1509;SDS011;746;48.688;9.428;2022-12-07T03:25:19;15.33;;;12.67;;
1509;SDS011;746;48.688;9.428;2022-12-07T03:27:42;13.30;;;10.90;;
1509;SDS011;746;48.688;9.428;2022-12-07T03:30:06;14.63;;;12.33;;
1509;SDS011;746;48.688;9.428;2022-12-07T03:32:29;14.27;;;11.47;;
1509;SDS011;746;48.688;9.428;2022-12-07T03:34:53;12.43;;;11.13;;
1509;SDS011;746;48.688;9.428;2022-12-07T03:37:20;14.53;;;11.67;;
1509;SDS011;746;48.688;9.428;2022-12-07T03:39:45;15.70;;;11.90;;
1509;SDS011;746;48.688;9.428;2022-12-07T03:42:07;14.33;;;12.10;;
1509;SDS011;746;48.688;9.428;2022-12-07T03:44:29;12.93;;;11.37;;
1509;SDS011;746;48.688;9.428;2022-12-07T03:46:52;14.00;;;12.30;;
1509;SDS011;746;48.688;9.428;2022-12-07T03:49:18;13.37;;;11.90;;
1509;SDS011;746;48.688;9.428;2022-12-07T03:51:43;13.63;;;11.87;;
1509;SDS011;746;48.688;9.428;2022-12-07T03:54:09;14.53;;;11.43;;
1509;SDS011;746;48.688;9.428;2022-12-07T03:56:31;14.07;;;12.17;;
1509;SDS011;746;48.688;9.428;2022-12-07T03:58:53;14.67;;;12.57;;
1509;SDS011;746;48.688;9.428;2022-12-07T04:01:14;14.07;;;11.53;;
1509;SDS011;746;48.688;9.428;2022-12-07T04:03:36;13.03;;;11.33;;
1509;SDS011;746;48.688;9.428;2022-12-07T04:05:57;14.33;;;11.13;;
1509;SDS011;746;48.688;9.428;2022-12-07T04:08:18;13.43;;;11.70;;
1509;SDS011;746;48.688;9.428;2022-12-07T04:10:41;13.57;;;12.17;;
1509;SDS011;746;48.688;9.428;2022-12-07T04:13:02;13.00;;;11.50;;
1509;SDS011;746;48.688;9.428;2022-12-07T04:15:23;13.73;;;11.90;;
1509;SDS011;746;48.688;9.428;2022-12-07T04:17:44;12.07;;;10.47;;
1509;SDS011;746;48.688;9.428;2022-12-07T04:20:06;12.60;;;11.07;;
1509;SDS011;746;48.688;9.428;2022-12-07T04:22:28;12.87;;;10.87;;
1509;SDS011;746;48.688;9.428;2022-12-07T04:24:49;14.63;;;12.73;;
1509;SDS011;746;48.688;9.428;2022-12-07T04:27:12;14.03;;;11.83;;
1509;SDS011;746;48.688;9.428;2022-12-07T04:29:33;14.37;;;12.73;;
1509;SDS011;746;48.688;9.428;2022-12-07T04:31:54;15.47;;;12.27;;
1509;SDS011;746;48.688;9.428;2022-12-07T04:34:16;13.97;;;11.97;;
1509;SDS011;746;48.688;9.428;2022-12-07T04:36:37;14.27;;;12.60;;
1509;SDS011;746;48.688;9.428;2022-12-07T04:38:59;15.57;;;13.27;;
1509;SDS011;746;48.688;9.428;2022-12-07T04:41:20;16.63;;;13.33;;
1509;SDS011;746;48.688;9.428;2022-12-07T04:43:47;14.87;;;12.13;;
1509;SDS011;746;48.688;9.428;2022-12-07T04:46:09;15.40;;;12.90;;
1509;SDS011;746;48.688;9.428;2022-12-07T04:48:30;16.97;;;13.43;;
1509;SDS011;746;48.688;9.428;2022-12-07T04:50:51;15.73;;;12.67;;
1509;SDS011;746;48.688;9.428;2022-12-07T04:53:13;15.33;;;12.20;;
1509;SDS011;746;48.688;9.428;2022-12-07T04:55:34;14.20;;;11.97;;
1509;SDS011;746;48.688;9.428;2022-12-07T04:57:55;14.27;;;11.90;;
1509;SDS011;746;48.688;9.428;2022-12-07T05:00:18;14.83;;;13.23;;
1509;SDS011;746;48.688;9.428;2022-12-07T05:02:39;14.93;;;12.13;;
1509;SDS011;746;48.688;9.428;2022-12-07T05:05:01;15.73;;;13.87;;
1509;SDS011;746;48.688;9.428;2022-12-07T05:07:22;14.83;;;12.33;;
1509;SDS011;746;48.688;9.428;2022-12-07T05:09:43;15.43;;;12.73;;
1509;SDS011;746;48.688;9.428;2022-12-07T05:12:05;15.13;;;12.33;;
1509;SDS011;746;48.688;9.428;2022-12-07T05:14:26;14.77;;;11.97;;
1509;SDS011;746;48.688;9.428;2022-12-07T05:16:49;15.17;;;12.73;;
1509;SDS011;746;48.688;9.428;2022-12-07T05:19:11;16.97;;;13.20;;
1509;SDS011;746;48.688;9.428;2022-12-07T05:21:32;15.77;;;13.20;;
1509;SDS011;746;48.688;9.428;2022-12-07T05:23:53;15.73;;;13.10;;
1509;SDS011;746;48.688;9.428;2022-12-07T05:26:14;17.07;;;14.50;;
1509;SDS011;746;48.688;9.428;2022-12-07T05:28:35;20.03;;;16.50;;
1509;SDS011;746;48.688;9.428;2022-12-07T05:30:57;18.10;;;15.43;;
1509;SDS011;746;48.688;9.428;2022-12-07T05:33:20;21.67;;;15.10;;
1509;SDS011;746;48.688;9.428;2022-12-07T05:35:41;18.70;;;14.53;;
1509;SDS011;746;48.688;9.428;2022-12-07T05:38:02;19.57;;;14.50;;
1509;SDS011;746;48.688;9.428;2022-12-07T05:40:23;19.60;;;15.23;;
1509;SDS011;746;48.688;9.428;2022-12-07T05:42:45;20.13;;;13.93;;
1509;SDS011;746;48.688;9.428;2022-12-07T05:45:05;20.60;;;15.33;;
1509;SDS011;746;48.688;9.428;2022-12-07T05:47:27;18.57;;;13.87;;
1509;SDS011;746;48.688;9.428;2022-12-07T05:49:50;20.30;;;14.40;;
1509;SDS011;746;48.688;9.428;2022-12-07T05:52:11;19.33;;;14.67;;
1509;SDS011;746;48.688;9.428;2022-12-07T05:54:32;18.60;;;14.53;;
1509;SDS011;746;48.688;9.428;2022-12-07T05:56:54;18.53;;;14.30;;
1509;SDS011;746;48.688;9.428;2022-12-07T05:59:16;20.00;;;14.07;;
1509;SDS011;746;48.688;9.428;2022-12-07T06:01:46;17.00;;;12.80;;
1509;SDS011;746;48.688;9.428;2022-12-07T06:04:08;17.47;;;13.70;;
1509;SDS011;746;48.688;9.428;2022-12-07T06:06:31;16.33;;;13.37;;
1509;SDS011;746;48.688;9.428;2022-12-07T06:08:52;22.20;;;14.87;;
1509;SDS011;746;48.688;9.428;2022-12-07T06:11:13;16.13;;;13.30;;
1509;SDS011;746;48.688;9.428;2022-12-07T06:13:52;18.63;;;14.47;;
1509;SDS011;746;48.688;9.428;2022-12-07T06:16:13;17.90;;;14.50;;
1509;SDS011;746;48.688;9.428;2022-12-07T06:18:35;17.87;;;13.77;;
1509;SDS011;746;48.688;9.428;2022-12-07T06:20:56;20.60;;;14.77;;
1509;SDS011;746;48.688;9.428;2022-12-07T06:23:18;16.93;;;13.60;;
1509;SDS011;746;48.688;9.428;2022-12-07T06:25:39;15.73;;;13.13;;
1509;SDS011;746;48.688;9.428;2022-12-07T06:28:05;17.87;;;13.43;;
1509;SDS011;746;48.688;9.428;2022-12-07T06:30:27;16.63;;;13.70;;
1509;SDS011;746;48.688;9.428;2022-12-07T06:32:48;17.10;;;13.30;;
1509;SDS011;746;48.688;9.428;2022-12-07T06:35:09;17.33;;;14.00;;
1509;SDS011;746;48.688;9.428;2022-12-07T06:37:31;18.30;;;14.20;;
1509;SDS011;746;48.688;9.428;2022-12-07T06:39:53;17.93;;;14.07;;
1509;SDS011;746;48.688;9.428;2022-12-07T06:42:14;15.87;;;13.33;;
1509;SDS011;746;48.688;9.428;2022-12-07T06:44:36;18.90;;;14.00;;
1509;SDS011;746;48.688;9.428;2022-12-07T06:46:57;17.57;;;14.00;;
1509;SDS011;746;48.688;9.428;2022-12-07T06:49:38;57.60;;;28.07;;
1509;SDS011;746;48.688;9.428;2022-12-07T06:52:00;21.03;;;15.53;;
1509;SDS011;746;48.688;9.428;2022-12-07T06:54:21;16.53;;;13.43;;
1509;SDS011;746;48.688;9.428;2022-12-07T06:56:44;18.60;;;13.47;;
1509;SDS011;746;48.688;9.428;2022-12-07T06:59:05;16.43;;;14.03;;
1509;SDS011;746;48.688;9.428;2022-12-07T07:01:27;16.63;;;13.17;;
1509;SDS011;746;48.688;9.428;2022-12-07T07:03:48;19.10;;;16.77;;
1509;SDS011;746;48.688;9.428;2022-12-07T07:06:10;25.63;;;22.27;;
1509;SDS011;746;48.688;9.428;2022-12-07T07:08:31;19.30;;;16.13;;
1509;SDS011;746;48.688;9.428;2022-12-07T07:10:52;16.40;;;12.77;;
1509;SDS011;746;48.688;9.428;2022-12-07T07:13:15;14.57;;;12.63;;
1509;SDS011;746;48.688;9.428;2022-12-07T07:15:37;17.00;;;13.97;;
1509;SDS011;746;48.688;9.428;2022-12-07T07:17:58;18.90;;;14.43;;
1509;SDS011;746;48.688;9.428;2022-12-07T07:20:26;17.63;;;12.90;;
1509;SDS011;746;48.688;9.428;2022-12-07T07:22:48;14.83;;;12.93;;
1509;SDS011;746;48.688;9.428;2022-12-07T07:25:09;17.20;;;13.60;;
1509;SDS011;746;48.688;9.428;2022-12-07T07:27:30;17.70;;;13.73;;
1509;SDS011;746;48.688;9.428;2022-12-07T07:29:53;14.97;;;12.90;;
1509;SDS011;746;48.688;9.428;2022-12-07T07:32:14;16.43;;;13.63;;
1509;SDS011;746;48.688;9.428;2022-12-07T07:34:35;14.60;;;13.00;;
1509;SDS011;746;48.688;9.428;2022-12-07T07:36:56;15.60;;;13.27;;
1509;SDS011;746;48.688;9.428;2022-12-07T07:39:18;15.00;;;12.00;;
1509;SDS011;746;48.688;9.428;2022-12-07T07:41:39;14.33;;;12.70;;
1509;SDS011;746;48.688;9.428;2022-12-07T07:44:00;14.03;;;12.53;;
1509;SDS011;746;48.688;9.428;2022-12-07T07:46:23;15.20;;;12.93;;
1509;SDS011;746;48.688;9.428;2022-12-07T07:48:44;14.83;;;12.73;;
1509;SDS011;746;48.688;9.428;2022-12-07T07:51:05;15.77;;;13.53;;
1509;SDS011;746;48.688;9.428;2022-12-07T07:53:27;14.37;;;12.13;;
1509;SDS011;746;48.688;9.428;2022-12-07T07:55:51;15.20;;;12.70;;
1509;SDS011;746;48.688;9.428;2022-12-07T07:58:13;13.67;;;12.13;;
1509;SDS011;746;48.688;9.428;2022-12-07T08:00:35;13.33;;;11.83;;
1509;SDS011;746;48.688;9.428;2022-12-07T08:02:57;16.83;;;11.33;;
1509;SDS011;746;48.688;9.428;2022-12-07T08:05:18;17.23;;;12.00;;
1509;SDS011;746;48.688;9.428;2022-12-07T08:07:40;19.10;;;12.00;;
1509;SDS011;746;48.688;9.428;2022-12-07T08:10:01;15.23;;;12.20;;
1509;SDS011;746;48.688;9.428;2022-12-07T08:12:23;17.07;;;10.97;;
1509;SDS011;746;48.688;9.428;2022-12-07T08:14:44;14.00;;;11.57;;
1509;SDS011;746;48.688;9.428;2022-12-07T08:17:05;14.00;;;11.30;;
1509;SDS011;746;48.688;9.428;2022-12-07T08:19:28;17.90;;;13.83;;
1509;SDS011;746;48.688;9.428;2022-12-07T08:21:49;46.30;;;26.23;;
1509;SDS011;746;48.688;9.428;2022-12-07T08:24:10;16.17;;;12.30;;
1509;SDS011;746;48.688;9.428;2022-12-07T08:26:32;15.33;;;12.47;;
1509;SDS011;746;48.688;9.428;2022-12-07T08:28:53;13.47;;;11.57;;
1509;SDS011;746;48.688;9.428;2022-12-07T08:31:15;55.17;;;30.43;;
1509;SDS011;746;48.688;9.428;2022-12-07T08:33:37;28.77;;;19.83;;
1509;SDS011;746;48.688;9.428;2022-12-07T08:36:01;25.50;;;19.57;;
1509;SDS011;746;48.688;9.428;2022-12-07T08:38:22;20.10;;;15.23;;
1509;SDS011;746;48.688;9.428;2022-12-07T08:40:53;12.07;;;10.57;;
1509;SDS011;746;48.688;9.428;2022-12-07T08:43:14;16.20;;;11.20;;
1509;SDS011;746;48.688;9.428;2022-12-07T08:45:35;15.17;;;12.77;;
1509;SDS011;746;48.688;9.428;2022-12-07T08:47:57;16.97;;;14.30;;
1509;SDS011;746;48.688;9.428;2022-12-07T08:50:21;29.83;;;21.03;;
1509;SDS011;746;48.688;9.428;2022-12-07T08:52:43;23.93;;;16.80;;
1509;SDS011;746;48.688;9.428;2022-12-07T08:55:05;20.47;;;15.73;;
1509;SDS011;746;48.688;9.428;2022-12-07T08:57:26;17.73;;;14.53;;
1509;SDS011;746;48.688;9.428;2022-12-07T08:59:48;12.53;;;11.23;;
1509;SDS011;746;48.688;9.428;2022-12-07T09:02:09;14.87;;;12.57;;
1509;SDS011;746;48.688;9.428;2022-12-07T09:04:31;11.40;;;10.03;;
1509;SDS011;746;48.688;9.428;2022-12-07T09:06:52;13.40;;;11.17;;
1509;SDS011;746;48.688;9.428;2022-12-07T09:09:16;10.90;;;9.70;;
1509;SDS011;746;48.688;9.428;2022-12-07T09:11:37;11.63;;;10.43;;
1509;SDS011;746;48.688;9.428;2022-12-07T09:13:59;10.77;;;8.70;;
1509;SDS011;746;48.688;9.428;2022-12-07T09:16:20;19.80;;;10.67;;
1509;SDS011;746;48.688;9.428;2022-12-07T09:18:41;11.73;;;8.87;;
1509;SDS011;746;48.688;9.428;2022-12-07T09:21:03;9.70;;;8.73;;
1509;SDS011;746;48.688;9.428;2022-12-07T09:23:24;10.40;;;9.03;;
1509;SDS011;746;48.688;9.428;2022-12-07T09:25:46;10.67;;;9.23;;
1509;SDS011;746;48.688;9.428;2022-12-07T09:28:08;9.63;;;8.57;;
1509;SDS011;746;48.688;9.428;2022-12-07T09:30:29;10.23;;;8.93;;
1509;SDS011;746;48.688;9.428;2022-12-07T09:32:51;10.97;;;9.87;;
1509;SDS011;746;48.688;9.428;2022-12-07T09:35:13;11.70;;;9.73;;
1509;SDS011;746;48.688;9.428;2022-12-07T09:37:34;10.77;;;9.67;;
1509;SDS011;746;48.688;9.428;2022-12-07T09:39:55;10.43;;;9.10;;
1509;SDS011;746;48.688;9.428;2022-12-07T09:42:23;11.17;;;9.37;;
1509;SDS011;746;48.688;9.428;2022-12-07T09:44:45;11.10;;;10.00;;
1509;SDS011;746;48.688;9.428;2022-12-07T09:47:07;10.60;;;9.47;;
1509;SDS011;746;48.688;9.428;2022-12-07T09:49:30;9.43;;;8.53;;
1509;SDS011;746;48.688;9.428;2022-12-07T09:51:59;11.40;;;9.63;;
1509;SDS011;746;48.688;9.428;2022-12-07T09:54:21;9.63;;;8.63;;
1509;SDS011;746;48.688;9.428;2022-12-07T09:56:43;9.27;;;8.37;;
1509;SDS011;746;48.688;9.428;2022-12-07T09:59:06;11.30;;;8.80;;
1509;SDS011;746;48.688;9.428;2022-12-07T10:01:30;10.47;;;9.40;;
1509;SDS011;746;48.688;9.428;2022-12-07T10:03:53;9.13;;;7.60;;
1509;SDS011;746;48.688;9.428;2022-12-07T10:06:14;9.40;;;8.37;;
1509;SDS011;746;48.688;9.428;2022-12-07T10:08:36;10.17;;;9.10;;
1509;SDS011;746;48.688;9.428;2022-12-07T10:10:57;11.47;;;8.73;;
1509;SDS011;746;48.688;9.428;2022-12-07T10:13:19;9.83;;;8.83;;
1509;SDS011;746;48.688;9.428;2022-12-07T10:15:44;10.60;;;9.10;;
1509;SDS011;746;48.688;9.428;2022-12-07T10:18:13;9.93;;;8.83;;
1509;SDS011;746;48.688;9.428;2022-12-07T10:20:37;11.83;;;8.50;;
1509;SDS011;746;48.688;9.428;2022-12-07T10:22:59;9.40;;;8.30;;
1509;SDS011;746;48.688;9.428;2022-12-07T10:25:21;9.97;;;9.07;;
1509;SDS011;746;48.688;9.428;2022-12-07T10:27:42;10.57;;;9.03;;
1509;SDS011;746;48.688;9.428;2022-12-07T10:30:07;10.30;;;9.20;;
1509;SDS011;746;48.688;9.428;2022-12-07T10:32:32;8.97;;;7.80;;
1509;SDS011;746;48.688;9.428;2022-12-07T10:34:59;11.40;;;7.40;;
1509;SDS011;746;48.688;9.428;2022-12-07T10:37:32;10.03;;;7.20;;
1509;SDS011;746;48.688;9.428;2022-12-07T10:40:00;9.40;;;8.00;;
1509;SDS011;746;48.688;9.428;2022-12-07T10:42:22;10.40;;;7.23;;
1509;SDS011;746;48.688;9.428;2022-12-07T10:44:43;9.23;;;8.03;;
1509;SDS011;746;48.688;9.428;2022-12-07T10:50:04;8.10;;;7.30;;
1509;SDS011;746;48.688;9.428;2022-12-07T10:55:12;8.57;;;7.77;;
1509;SDS011;746;48.688;9.428;2022-12-07T10:57:38;8.83;;;7.50;;
1509;SDS011;746;48.688;9.428;2022-12-07T11:00:07;9.43;;;7.93;;
1509;SDS011;746;48.688;9.428;2022-12-07T11:02:34;8.20;;;7.40;;
1509;SDS011;746;48.688;9.428;2022-12-07T11:05:01;24.13;;;11.73;;
1509;SDS011;746;48.688;9.428;2022-12-07T11:07:27;32.40;;;16.33;;
1509;SDS011;746;48.688;9.428;2022-12-07T11:09:56;30.40;;;15.67;;
1509;SDS011;746;48.688;9.428;2022-12-07T11:12:31;7.70;;;6.90;;
1509;SDS011;746;48.688;9.428;2022-12-07T11:14:58;29.53;;;17.77;;
1509;SDS011;746;48.688;9.428;2022-12-07T11:17:23;11.93;;;7.47;;
1509;SDS011;746;48.688;9.428;2022-12-07T11:19:52;9.87;;;8.50;;
1509;SDS011;746;48.688;9.428;2022-12-07T11:22:16;8.57;;;7.50;;
1509;SDS011;746;48.688;9.428;2022-12-07T11:24:40;9.43;;;7.93;;
1509;SDS011;746;48.688;9.428;2022-12-07T11:27:10;8.60;;;7.70;;
1509;SDS011;746;48.688;9.428;2022-12-07T11:32:15;9.57;;;7.30;;
1509;SDS011;746;48.688;9.428;2022-12-07T11:34:39;8.83;;;7.43;;
1509;SDS011;746;48.688;9.428;2022-12-07T11:37:08;8.27;;;6.87;;
1509;SDS011;746;48.688;9.428;2022-12-07T11:39:33;8.20;;;7.40;;
1509;SDS011;746;48.688;9.428;2022-12-07T11:41:59;10.67;;;8.60;;
1509;SDS011;746;48.688;9.428;2022-12-07T11:44:25;10.07;;;9.07;;
1509;SDS011;746;48.688;9.428;2022-12-07T11:46:48;8.20;;;6.97;;
1509;SDS011;746;48.688;9.428;2022-12-07T11:49:12;6.93;;;6.23;;
1509;SDS011;746;48.688;9.428;2022-12-07T11:51:36;7.47;;;6.67;;
1509;SDS011;746;48.688;9.428;2022-12-07T11:53:58;7.67;;;6.97;;
1509;SDS011;746;48.688;9.428;2022-12-07T11:56:23;9.97;;;8.97;;
1509;SDS011;746;48.688;9.428;2022-12-07T11:58:48;13.07;;;7.17;;
1509;SDS011;746;48.688;9.428;2022-12-07T12:01:13;7.73;;;6.93;;
1509;SDS011;746;48.688;9.428;2022-12-07T12:03:36;7.83;;;7.10;;
1509;SDS011;746;48.688;9.428;2022-12-07T12:05:59;10.67;;;6.87;;
1509;SDS011;746;48.688;9.428;2022-12-07T12:08:21;7.37;;;6.67;;
1509;SDS011;746;48.688;9.428;2022-12-07T12:11:06;7.50;;;6.57;;
1509;SDS011;746;48.688;9.428;2022-12-07T12:13:54;7.87;;;6.80;;
1509;SDS011;746;48.688;9.428;2022-12-07T12:16:47;8.30;;;7.03;;
1509;SDS011;746;48.688;9.428;2022-12-07T12:19:17;9.90;;;7.23;;
1509;SDS011;746;48.688;9.428;2022-12-07T12:21:41;8.90;;;7.27;;
1509;SDS011;746;48.688;9.428;2022-12-07T12:24:03;8.47;;;6.60;;
1509;SDS011;746;48.688;9.428;2022-12-07T12:26:27;8.47;;;6.27;;
1509;SDS011;746;48.688;9.428;2022-12-07T12:28:51;7.30;;;6.57;;
1509;SDS011;746;48.688;9.428;2022-12-07T12:31:15;8.30;;;6.80;;
1509;SDS011;746;48.688;9.428;2022-12-07T12:33:36;8.87;;;5.70;;
1509;SDS011;746;48.688;9.428;2022-12-07T12:36:18;7.33;;;6.63;;
1509;SDS011;746;48.688;9.428;2022-12-07T12:46:57;12.13;;;7.20;;
1509;SDS011;746;48.688;9.428;2022-12-07T12:54:57;7.87;;;6.63;;
1509;SDS011;746;48.688;9.428;2022-12-07T12:57:20;7.30;;;6.07;;
1509;SDS011;746;48.688;9.428;2022-12-07T12:59:44;7.73;;;6.93;;
1509;SDS011;746;48.688;9.428;2022-12-07T13:02:21;7.60;;;6.87;;
1509;SDS011;746;48.688;9.428;2022-12-07T13:07:13;7.73;;;6.40;;
1509;SDS011;746;48.688;9.428;2022-12-07T13:09:53;7.80;;;7.00;;
1509;SDS011;746;48.688;9.428;2022-12-07T13:12:14;10.03;;;7.90;;
1509;SDS011;746;48.688;9.428;2022-12-07T13:14:41;8.37;;;6.90;;
1509;SDS011;746;48.688;9.428;2022-12-07T13:17:02;9.03;;;7.13;;
1509;SDS011;746;48.688;9.428;2022-12-07T13:22:08;8.97;;;6.03;;
1509;SDS011;746;48.688;9.428;2022-12-07T13:24:46;8.77;;;7.10;;
1509;SDS011;746;48.688;9.428;2022-12-07T13:27:07;7.90;;;7.20;;
1509;SDS011;746;48.688;9.428;2022-12-07T13:29:29;8.23;;;7.37;;
1509;SDS011;746;48.688;9.428;2022-12-07T13:31:58;6.10;;;5.60;;
1509;SDS011;746;48.688;9.428;2022-12-07T13:34:30;9.13;;;7.93;;
1509;SDS011;746;48.688;9.428;2022-12-07T13:36:51;6.97;;;6.23;;
1509;SDS011;746;48.688;9.428;2022-12-07T13:39:21;7.13;;;6.00;;
1509;SDS011;746;48.688;9.428;2022-12-07T13:41:44;7.03;;;5.57;;
1509;SDS011;746;48.688;9.428;2022-12-07T13:44:08;6.23;;;5.63;;
1509;SDS011;746;48.688;9.428;2022-12-07T13:46:40;9.40;;;6.20;;
1509;SDS011;746;48.688;9.428;2022-12-07T13:49:03;9.20;;;6.00;;
1509;SDS011;746;48.688;9.428;2022-12-07T13:51:36;7.27;;;6.57;;
1509;SDS011;746;48.688;9.428;2022-12-07T13:54:01;7.57;;;6.87;;
1509;SDS011;746;48.688;9.428;2022-12-07T13:56:25;9.30;;;7.53;;
1509;SDS011;746;48.688;9.428;2022-12-07T13:58:48;9.30;;;7.87;;
1509;SDS011;746;48.688;9.428;2022-12-07T14:01:10;10.30;;;9.20;;
1509;SDS011;746;48.688;9.428;2022-12-07T14:03:33;9.00;;;7.90;;
1509;SDS011;746;48.688;9.428;2022-12-07T14:06:03;9.27;;;8.20;;
1509;SDS011;746;48.688;9.428;2022-12-07T14:08:25;12.47;;;8.63;;
1509;SDS011;746;48.688;9.428;2022-12-07T14:10:53;12.13;;;8.47;;
1509;SDS011;746;48.688;9.428;2022-12-07T14:13:28;10.67;;;8.17;;
1509;SDS011;746;48.688;9.428;2022-12-07T14:15:51;9.43;;;7.87;;
1509;SDS011;746;48.688;9.428;2022-12-07T14:18:24;12.67;;;8.30;;
1509;SDS011;746;48.688;9.428;2022-12-07T14:20:46;9.13;;;8.17;;
1509;SDS011;746;48.688;9.428;2022-12-07T14:23:21;8.80;;;7.97;;
1509;SDS011;746;48.688;9.428;2022-12-07T14:25:46;12.50;;;9.70;;
1509;SDS011;746;48.688;9.428;2022-12-07T14:28:23;8.37;;;7.50;;
1509;SDS011;746;48.688;9.428;2022-12-07T14:30:47;8.83;;;7.93;;
1509;SDS011;746;48.688;9.428;2022-12-07T14:33:08;8.80;;;7.90;;
1509;SDS011;746;48.688;9.428;2022-12-07T14:35:30;8.23;;;7.33;;
1509;SDS011;746;48.688;9.428;2022-12-07T14:37:51;10.03;;;8.10;;
1509;SDS011;746;48.688;9.428;2022-12-07T14:40:13;8.63;;;7.50;;
1509;SDS011;746;48.688;9.428;2022-12-07T14:42:34;8.80;;;7.87;;
1509;SDS011;746;48.688;9.428;2022-12-07T14:44:56;14.73;;;8.43;;
1509;SDS011;746;48.688;9.428;2022-12-07T14:47:18;11.27;;;9.03;;
1509;SDS011;746;48.688;9.428;2022-12-07T14:49:59;9.10;;;8.20;;
1509;SDS011;746;48.688;9.428;2022-12-07T14:52:26;8.93;;;7.60;;
1509;SDS011;746;48.688;9.428;2022-12-07T14:55:12;9.07;;;7.30;;
1509;SDS011;746;48.688;9.428;2022-12-07T14:57:34;8.23;;;7.40;;
1509;SDS011;746;48.688;9.428;2022-12-07T14:59:55;8.93;;;7.57;;
1509;SDS011;746;48.688;9.428;2022-12-07T15:02:16;8.13;;;7.33;;
1509;SDS011;746;48.688;9.428;2022-12-07T15:04:39;12.37;;;9.00;;
1509;SDS011;746;48.688;9.428;2022-12-07T15:07:00;10.03;;;8.40;;
1509;SDS011;746;48.688;9.428;2022-12-07T15:09:22;9.10;;;7.73;;
1509;SDS011;746;48.688;9.428;2022-12-07T15:11:44;9.97;;;7.30;;
1509;SDS011;746;48.688;9.428;2022-12-07T15:14:05;13.73;;;10.80;;
1509;SDS011;746;48.688;9.428;2022-12-07T15:16:30;9.57;;;8.57;;